createdAt,value
2023-03-17T00:00:15.239Z,56.58
2023-03-17T00:02:43.638Z,56.26
2023-03-17T00:05:17.539Z,56.59
2023-03-17T00:07:45.315Z,58.63
2023-03-17T00:10:19.127Z,58.96
2023-03-17T00:12:46.121Z,59.02
2023-03-17T00:15:13.939Z,57.71
2023-03-17T00:17:41.110Z,59.92
2023-03-17T00:20:11.745Z,59.00
2023-03-17T00:22:38.571Z,58.19
2023-03-17T00:25:16.815Z,60.00
2023-03-17T00:27:43.917Z,59.44
2023-03-17T00:30:11.390Z,58.74
2023-03-17T00:32:38.505Z,57.72
2023-03-17T00:35:14.833Z,58.38
2023-03-17T00:37:41.977Z,57.32
2023-03-17T00:40:19.101Z,57.20
2023-03-17T00:42:46.307Z,55.77
2023-03-17T00:45:14.513Z,56.44
2023-03-17T00:47:41.562Z,56.39
2023-03-17T00:50:13.077Z,57.18
2023-03-17T00:52:40.729Z,57.18
2023-03-17T00:55:09.389Z,55.57
2023-03-17T00:57:37.488Z,57.93
2023-03-17T01:00:05.118Z,57.16
2023-03-17T01:02:32.293Z,57.19
2023-03-17T01:05:06.409Z,57.74
2023-03-17T01:07:34.000Z,57.43
2023-03-17T01:10:01.276Z,58.13
2023-03-17T01:12:28.029Z,58.55
2023-03-17T01:14:54.808Z,57.09
2023-03-17T01:17:22.115Z,57.45
2023-03-17T01:19:49.259Z,57.79
2023-03-17T01:22:15.880Z,56.99
2023-03-17T01:24:42.541Z,57.74
2023-03-17T01:27:09.461Z,59.10
2023-03-17T01:29:36.924Z,58.27
2023-03-17T01:32:04.036Z,57.40
2023-03-17T01:34:30.714Z,57.97
2023-03-17T01:36:57.389Z,57.98
2023-03-17T01:39:24.049Z,57.04
2023-03-17T01:41:56.812Z,57.04
2023-03-17T01:44:23.929Z,57.54
2023-03-17T01:46:50.468Z,56.67
2023-03-17T01:49:17.194Z,55.67
2023-03-17T01:52:01.067Z,56.85
2023-03-17T01:54:35.011Z,57.24
2023-03-17T01:57:23.319Z,55.91
2023-03-17T01:59:52.722Z,57.91
2023-03-17T02:02:22.678Z,58.34
2023-03-17T02:04:52.154Z,56.83
2023-03-17T02:07:20.502Z,58.21
2023-03-17T02:09:47.817Z,57.40
2023-03-17T02:12:15.387Z,58.22
2023-03-17T02:14:42.009Z,56.84
2023-03-17T02:17:08.702Z,56.14
2023-03-17T02:19:35.689Z,56.65
2023-03-17T02:22:02.667Z,55.92
2023-03-17T02:24:34.839Z,56.46
2023-03-17T02:27:05.753Z,58.12
2023-03-17T02:29:34.155Z,56.54
2023-03-17T02:32:01.043Z,58.10
2023-03-17T02:34:29.912Z,57.30
2023-03-17T02:36:57.230Z,57.41
2023-03-17T02:39:24.163Z,55.69
2023-03-17T02:41:51.151Z,55.68
2023-03-17T02:44:17.852Z,55.03
2023-03-17T02:46:44.722Z,54.67
2023-03-17T02:49:12.046Z,55.10
2023-03-17T02:51:38.892Z,55.01
2023-03-17T02:54:05.808Z,56.43
2023-03-17T02:56:32.817Z,55.92
2023-03-17T02:58:59.482Z,55.74
2023-03-17T03:01:26.918Z,55.73
2023-03-17T03:03:53.643Z,56.71
2023-03-17T03:06:20.355Z,56.59
2023-03-17T03:08:47.098Z,57.20
2023-03-17T03:11:14.171Z,55.88
2023-03-17T03:13:40.892Z,56.32
2023-03-17T03:16:08.300Z,57.34
2023-03-17T03:18:35.369Z,56.40
2023-03-17T03:21:01.964Z,56.61
2023-03-17T03:23:28.560Z,56.72
2023-03-17T03:25:55.805Z,56.95
2023-03-17T03:28:22.676Z,57.31
2023-03-17T03:30:49.465Z,56.75
2023-03-17T03:33:16.917Z,56.50
2023-03-17T03:35:44.454Z,55.90
2023-03-17T03:38:11.709Z,55.66
2023-03-17T03:40:38.893Z,57.55
2023-03-17T03:43:16.341Z,56.15
2023-03-17T03:45:46.612Z,56.20
2023-03-17T03:48:13.536Z,57.25
2023-03-17T03:50:40.447Z,56.50
2023-03-17T03:53:07.331Z,56.87
2023-03-17T03:55:34.177Z,55.59
2023-03-17T03:58:00.778Z,56.39
2023-03-17T04:00:27.501Z,56.41
2023-03-17T04:02:55.355Z,55.94
2023-03-17T04:05:22.250Z,55.86
2023-03-17T04:07:48.933Z,54.53
2023-03-17T04:10:16.061Z,55.09
2023-03-17T04:12:43.114Z,55.28
2023-03-17T04:15:11.347Z,53.82
2023-03-17T04:17:38.194Z,53.39
2023-03-17T04:20:05.355Z,53.55
2023-03-17T04:22:31.947Z,54.75
2023-03-17T04:24:58.595Z,54.24
2023-03-17T04:27:25.515Z,54.97
2023-03-17T04:29:52.715Z,54.51
2023-03-17T04:32:19.423Z,53.45
2023-03-17T04:34:46.107Z,53.84
2023-03-17T04:37:12.907Z,53.43
2023-03-17T04:39:39.709Z,53.89
2023-03-17T04:42:07.654Z,56.76
2023-03-17T04:44:34.376Z,55.51
2023-03-17T04:47:01.046Z,55.71
2023-03-17T04:49:28.097Z,55.14
2023-03-17T04:51:54.802Z,54.87
2023-03-17T04:54:21.801Z,54.74
2023-03-17T04:56:48.542Z,54.12
2023-03-17T04:59:16.235Z,54.81
2023-03-17T05:01:44.016Z,55.43
2023-03-17T05:04:12.797Z,55.91
2023-03-17T05:06:43.521Z,55.65
2023-03-17T05:09:10.164Z,55.35
2023-03-17T05:11:37.136Z,54.13
2023-03-17T05:14:03.672Z,54.35
2023-03-17T05:16:30.908Z,53.38
2023-03-17T05:18:57.588Z,52.73
2023-03-17T05:21:24.229Z,52.81
2023-03-17T05:23:51.581Z,53.39
2023-03-17T05:26:19.595Z,53.42
2023-03-17T05:28:48.458Z,53.73
2023-03-17T05:31:15.148Z,52.59
2023-03-17T05:33:41.837Z,52.89
2023-03-17T05:36:08.718Z,54.83
2023-03-17T05:38:36.010Z,55.19
2023-03-17T05:41:04.230Z,54.73
2023-03-17T05:43:31.244Z,55.26
2023-03-17T05:45:57.916Z,53.55
2023-03-17T05:48:24.669Z,53.73
2023-03-17T05:50:51.281Z,52.52
2023-03-17T05:53:18.713Z,52.59
2023-03-17T05:55:45.436Z,54.28
2023-03-17T05:58:12.926Z,54.89
2023-03-17T06:00:39.582Z,55.31
2023-03-17T06:03:06.630Z,53.94
2023-03-17T06:05:33.768Z,53.11
2023-03-17T06:08:00.726Z,53.56
2023-03-17T06:10:27.780Z,54.62
2023-03-17T06:12:54.565Z,54.83
2023-03-17T06:15:21.205Z,54.83
2023-03-17T06:17:47.854Z,54.14
2023-03-17T06:20:14.813Z,52.88
2023-03-17T06:23:00.468Z,52.84
2023-03-17T06:25:29.944Z,54.18
2023-03-17T06:27:57.699Z,53.13
2023-03-17T06:30:25.303Z,53.11
2023-03-17T06:32:51.993Z,52.37
2023-03-17T06:35:18.920Z,52.11
2023-03-17T06:37:45.532Z,52.96
2023-03-17T06:40:12.573Z,53.07
2023-03-17T06:42:39.447Z,51.04
2023-03-17T06:45:06.668Z,51.75
2023-03-17T06:47:34.152Z,51.69
2023-03-17T06:50:00.855Z,52.28
2023-03-17T06:52:27.841Z,52.37
2023-03-17T06:54:54.426Z,51.05
2023-03-17T06:57:21.152Z,50.94
2023-03-17T06:59:47.980Z,51.27
2023-03-17T07:02:15.288Z,50.54
2023-03-17T07:04:42.279Z,50.69
2023-03-17T07:07:09.458Z,51.14
2023-03-17T07:09:36.405Z,51.26
2023-03-17T07:12:06.100Z,51.96
2023-03-17T07:14:34.372Z,51.54
2023-03-17T07:17:01.981Z,50.52
2023-03-17T07:19:29.276Z,51.29
2023-03-17T07:21:56.490Z,50.25
2023-03-17T07:24:23.746Z,50.65
2023-03-17T07:26:50.378Z,49.78
2023-03-17T07:29:17.530Z,51.23
2023-03-17T07:31:44.864Z,51.67
2023-03-17T07:34:12.768Z,51.00
2023-03-17T07:36:39.979Z,50.63
2023-03-17T07:39:06.925Z,51.52
2023-03-17T07:41:33.662Z,51.38
2023-03-17T07:44:00.798Z,49.48
2023-03-17T07:46:27.772Z,48.85
2023-03-17T07:48:54.657Z,50.07
2023-03-17T07:51:23.250Z,49.81
2023-03-17T07:53:53.117Z,49.69
2023-03-17T07:56:19.686Z,47.74
2023-03-17T07:58:46.384Z,47.73
2023-03-17T08:01:13.150Z,48.60
2023-03-17T08:03:41.479Z,47.58
2023-03-17T08:06:08.712Z,47.09
2023-03-17T08:08:36.024Z,46.85
2023-03-17T08:11:03.808Z,47.02
2023-03-17T08:13:33.396Z,46.82
2023-03-17T08:16:00.713Z,47.32
2023-03-17T08:18:27.592Z,47.59
2023-03-17T08:20:54.187Z,46.81
2023-03-17T08:23:21.594Z,46.12
2023-03-17T08:25:48.833Z,46.94
2023-03-17T08:28:16.546Z,46.06
2023-03-17T08:30:44.826Z,45.30
2023-03-17T08:33:11.540Z,45.37
2023-03-17T08:35:40.585Z,44.98
2023-03-17T08:38:07.857Z,44.81
2023-03-17T08:40:34.957Z,44.78
2023-03-17T08:43:01.915Z,44.47
2023-03-17T08:45:28.975Z,44.02
2023-03-17T08:47:55.944Z,43.28
2023-03-17T08:50:23.682Z,44.17
2023-03-17T08:52:51.520Z,44.37
2023-03-17T08:55:18.876Z,42.98
2023-03-17T08:57:45.858Z,43.39
2023-03-17T09:00:16.282Z,43.33
2023-03-17T09:02:43.679Z,41.88
2023-03-17T09:05:12.819Z,42.95
2023-03-17T09:07:40.161Z,42.79
2023-03-17T09:10:08.167Z,42.81
2023-03-17T09:12:35.105Z,42.45
2023-03-17T09:15:01.929Z,42.08
2023-03-17T09:17:28.706Z,41.76
2023-03-17T09:19:56.290Z,41.95
2023-03-17T09:22:23.232Z,42.32
2023-03-17T09:24:49.830Z,42.22
2023-03-17T09:27:16.781Z,41.84
2023-03-17T09:29:43.384Z,40.97
2023-03-17T09:32:10.399Z,41.53
2023-03-17T09:34:37.405Z,41.41
2023-03-17T09:37:03.922Z,41.60
2023-03-17T09:39:30.748Z,41.37
2023-03-17T09:42:12.603Z,41.51
2023-03-17T09:44:39.233Z,40.88
2023-03-17T09:47:10.549Z,41.11
2023-03-17T09:49:39.840Z,40.46
2023-03-17T09:52:11.902Z,40.46
2023-03-17T09:54:39.013Z,40.90
2023-03-17T09:57:18.026Z,40.55
2023-03-17T09:59:47.390Z,40.09
2023-03-17T10:02:30.766Z,39.80
2023-03-17T10:04:58.099Z,39.22
2023-03-17T10:07:37.706Z,38.52
2023-03-17T10:10:05.715Z,39.62
2023-03-17T10:12:41.751Z,38.87
2023-03-17T10:15:19.847Z,38.62
2023-03-17T10:17:47.664Z,37.83
2023-03-17T10:20:28.639Z,37.74
2023-03-17T10:22:58.206Z,38.40
2023-03-17T10:25:29.275Z,37.95
2023-03-17T10:28:02.281Z,39.25
2023-03-17T10:30:31.155Z,37.48
2023-03-17T10:32:59.704Z,37.59
2023-03-17T10:35:27.916Z,37.00
2023-03-17T10:38:07.891Z,37.22
2023-03-17T10:40:41.644Z,37.48
2023-03-17T10:43:16.537Z,36.66
2023-03-17T10:45:47.862Z,37.54
2023-03-17T10:48:18.647Z,36.78
2023-03-17T10:50:48.587Z,36.83
2023-03-17T10:53:28.412Z,36.53
2023-03-17T10:55:59.616Z,37.18
2023-03-17T10:58:37.489Z,36.76
2023-03-17T11:01:27.120Z,36.29
2023-03-17T11:03:53.974Z,35.43
2023-03-17T11:06:26.449Z,35.32
2023-03-17T11:08:54.835Z,36.01
2023-03-17T11:11:23.381Z,36.30
2023-03-17T11:13:49.975Z,36.74
2023-03-17T11:16:16.556Z,35.95
2023-03-17T11:18:43.345Z,36.09
2023-03-17T11:21:11.111Z,35.18
2023-03-17T11:23:51.292Z,35.46
2023-03-17T11:26:27.708Z,36.14
2023-03-17T11:29:05.831Z,36.08
2023-03-17T11:31:35.268Z,35.33
2023-03-17T11:34:09.385Z,35.71
2023-03-17T11:36:44.740Z,35.21
2023-03-17T11:39:24.162Z,35.55
2023-03-17T11:42:06.910Z,33.70
2023-03-17T11:44:47.474Z,34.34
2023-03-17T11:47:39.322Z,33.95
2023-03-17T11:50:23.297Z,33.88
2023-03-17T11:52:50.031Z,33.60
2023-03-17T11:55:17.614Z,33.67
2023-03-17T11:57:44.289Z,33.33
2023-03-17T12:00:18.693Z,33.41
2023-03-17T12:02:58.095Z,32.70
2023-03-17T12:05:28.752Z,32.16
2023-03-17T12:07:55.409Z,31.26
2023-03-17T12:10:22.820Z,31.45
2023-03-17T12:12:58.978Z,32.23
2023-03-17T12:15:36.468Z,32.63
2023-03-17T12:18:12.077Z,32.86
2023-03-17T12:20:41.568Z,32.03
2023-03-17T12:23:31.802Z,31.58
2023-03-17T12:26:07.834Z,30.53
2023-03-17T12:28:38.833Z,31.47
2023-03-17T12:31:12.605Z,31.35
2023-03-17T12:33:50.142Z,31.67
2023-03-17T12:36:17.859Z,32.05
2023-03-17T12:39:05.403Z,32.04
2023-03-17T12:41:41.091Z,31.35
2023-03-17T12:44:17.981Z,32.46
2023-03-17T12:46:47.730Z,31.86
2023-03-17T12:49:32.989Z,32.00
2023-03-17T12:52:06.786Z,31.42
2023-03-17T12:54:35.850Z,31.80
2023-03-17T12:57:05.561Z,32.56
2023-03-17T12:59:34.079Z,32.16
2023-03-17T13:02:15.682Z,31.78
2023-03-17T13:04:52.090Z,32.98
2023-03-17T13:07:26.861Z,32.65
2023-03-17T13:09:53.672Z,32.52
2023-03-17T13:12:39.027Z,31.09
2023-03-17T13:15:23.531Z,30.66
2023-03-17T13:17:50.094Z,29.56
2023-03-17T13:20:20.185Z,28.78
2023-03-17T13:23:02.201Z,28.38
2023-03-17T13:25:34.933Z,28.03
2023-03-17T13:28:04.349Z,28.00
2023-03-17T13:30:36.856Z,26.77
2023-03-17T13:33:15.163Z,26.29
2023-03-17T13:35:51.001Z,26.91
2023-03-17T13:38:17.671Z,27.69
2023-03-17T13:40:53.373Z,27.82
2023-03-17T13:43:49.196Z,28.33
2023-03-17T13:46:25.586Z,27.57
2023-03-17T13:48:56.880Z,27.62
2023-03-17T13:51:32.031Z,28.19
2023-03-17T13:54:19.344Z,26.91
2023-03-17T13:56:48.775Z,26.26
2023-03-17T13:59:15.561Z,25.49
2023-03-17T14:01:48.325Z,26.28
2023-03-17T14:04:40.942Z,26.53
2023-03-17T14:07:13.581Z,26.51
2023-03-17T14:09:42.186Z,26.86
2023-03-17T14:12:17.592Z,27.60
2023-03-17T14:14:53.186Z,27.12
2023-03-17T14:17:23.502Z,26.40
2023-03-17T14:19:59.886Z,26.41
2023-03-17T14:22:26.720Z,26.29
2023-03-17T14:24:54.788Z,26.01
2023-03-17T14:27:22.541Z,26.42
2023-03-17T14:29:49.245Z,26.15
2023-03-17T14:32:17.686Z,26.08
2023-03-17T14:34:52.957Z,26.30
2023-03-17T14:37:19.978Z,27.29
2023-03-17T14:39:54.720Z,27.65
2023-03-17T14:42:31.427Z,27.66
2023-03-17T14:45:02.435Z,27.53
2023-03-17T14:47:31.113Z,27.77
2023-03-17T14:49:57.661Z,28.14
2023-03-17T14:52:27.327Z,27.77
2023-03-17T14:54:55.121Z,28.10
2023-03-17T14:57:23.704Z,28.86
2023-03-17T14:59:58.393Z,29.43
2023-03-17T15:02:28.496Z,29.03
2023-03-17T15:05:17.838Z,28.49
2023-03-17T15:07:44.518Z,28.91
2023-03-17T15:10:18.373Z,29.34
2023-03-17T15:12:48.764Z,30.15
2023-03-17T15:15:21.719Z,29.43
2023-03-17T15:17:51.161Z,31.27
2023-03-17T15:20:19.867Z,31.40
2023-03-17T15:22:56.557Z,30.68
2023-03-17T15:25:29.152Z,30.89
2023-03-17T15:27:56.029Z,32.11
2023-03-17T15:30:22.850Z,32.18
2023-03-17T15:32:57.607Z,32.56
2023-03-17T15:35:24.205Z,33.15
2023-03-17T15:37:50.992Z,33.63
2023-03-17T15:40:18.193Z,33.35
2023-03-17T15:42:45.729Z,32.29
2023-03-17T15:45:16.351Z,33.29
2023-03-17T15:47:44.045Z,32.90
2023-03-17T15:50:16.125Z,32.25
2023-03-17T15:52:42.984Z,33.79
2023-03-17T15:55:15.206Z,32.86
2023-03-17T15:57:46.153Z,32.35
2023-03-17T16:00:19.049Z,32.55
2023-03-17T16:02:46.888Z,32.68
2023-03-17T16:05:21.492Z,32.68
2023-03-17T16:07:48.380Z,32.45
2023-03-17T16:10:25.400Z,32.76
2023-03-17T16:12:52.543Z,33.09
2023-03-17T16:15:24.964Z,33.61
2023-03-17T16:17:53.685Z,34.04
2023-03-17T16:20:24.996Z,33.74
2023-03-17T16:22:57.054Z,33.41
2023-03-17T16:25:30.930Z,32.74
2023-03-17T16:27:58.639Z,33.33
2023-03-17T16:30:33.044Z,33.62
2023-03-17T16:33:02.328Z,33.79
2023-03-17T16:35:29.564Z,33.39
2023-03-17T16:37:56.275Z,33.57
2023-03-17T16:40:24.750Z,34.08
2023-03-17T16:42:51.943Z,33.50
2023-03-17T16:45:22.089Z,33.92
2023-03-17T16:47:49.473Z,33.53
2023-03-17T16:50:17.583Z,33.03
2023-03-17T16:52:44.644Z,35.37
2023-03-17T16:55:11.991Z,33.82
2023-03-17T16:57:38.974Z,34.12
2023-03-17T17:00:06.208Z,34.25
2023-03-17T17:02:32.834Z,34.31
2023-03-17T17:05:01.925Z,34.22
2023-03-17T17:07:29.805Z,34.27
2023-03-17T17:09:56.552Z,34.35
2023-03-17T17:12:23.168Z,33.89
2023-03-17T17:14:49.907Z,34.28
2023-03-17T17:17:16.549Z,34.19
2023-03-17T17:19:43.312Z,34.63
2023-03-17T17:22:11.244Z,34.92
2023-03-17T17:24:38.000Z,34.64
2023-03-17T17:27:04.695Z,34.49
2023-03-17T17:29:32.490Z,34.24
2023-03-17T17:32:01.287Z,34.51
2023-03-17T17:34:28.028Z,34.42
2023-03-17T17:36:54.719Z,34.82
2023-03-17T17:39:21.498Z,35.48
2023-03-17T17:41:48.592Z,35.22
2023-03-17T17:44:15.443Z,35.69
2023-03-17T17:46:42.463Z,35.83
2023-03-17T17:49:10.737Z,35.75
2023-03-17T17:51:37.688Z,36.01
2023-03-17T17:54:04.312Z,36.17
2023-03-17T17:56:36.587Z,36.22
2023-03-17T17:59:03.345Z,36.37
2023-03-17T18:01:33.380Z,36.25
2023-03-17T18:04:00.205Z,36.54
2023-03-17T18:06:26.935Z,36.68
2023-03-17T18:08:55.183Z,36.48
2023-03-17T18:11:21.969Z,36.69
2023-03-17T18:13:48.649Z,36.71
2023-03-17T18:16:16.302Z,37.36
2023-03-17T18:18:45.685Z,36.78
2023-03-17T18:21:13.504Z,36.77
2023-03-17T18:23:47.138Z,36.57
2023-03-17T18:26:15.159Z,36.37
2023-03-17T18:28:42.417Z,36.96
2023-03-17T18:31:12.052Z,37.52
2023-03-17T18:33:39.870Z,37.79
2023-03-17T18:36:07.102Z,37.58
2023-03-17T18:38:34.230Z,38.14
2023-03-17T18:41:02.455Z,38.77
2023-03-17T18:43:29.258Z,38.41
2023-03-17T18:45:56.087Z,38.54
2023-03-17T18:48:22.708Z,38.48
2023-03-17T18:50:49.616Z,38.11
2023-03-17T18:53:17.033Z,38.64
2023-03-17T18:55:43.895Z,39.38
2023-03-17T18:58:10.642Z,38.80
2023-03-17T19:00:37.346Z,39.14
2023-03-17T19:03:04.172Z,39.17
2023-03-17T19:05:31.237Z,38.60
2023-03-17T19:07:58.134Z,38.96
2023-03-17T19:10:24.749Z,38.86
2023-03-17T19:12:52.352Z,38.77
2023-03-17T19:15:19.682Z,39.21
2023-03-17T19:17:47.169Z,39.40
2023-03-17T19:20:13.997Z,39.04
2023-03-17T19:22:41.659Z,39.75
2023-03-17T19:25:09.194Z,39.78
2023-03-17T19:27:36.143Z,39.00
2023-03-17T19:30:02.889Z,39.33
2023-03-17T19:32:29.881Z,39.57
2023-03-17T19:34:56.607Z,39.57
2023-03-17T19:37:23.240Z,39.81
2023-03-17T19:39:49.939Z,39.90
2023-03-17T19:42:17.438Z,39.89
2023-03-17T19:44:44.422Z,39.97
2023-03-17T19:47:11.404Z,41.87
2023-03-17T19:49:38.299Z,42.45
2023-03-17T19:52:06.397Z,43.06
2023-03-17T19:54:33.859Z,42.73
2023-03-17T19:57:00.586Z,42.89
2023-03-17T19:59:27.393Z,41.79
2023-03-17T20:01:54.286Z,41.40
2023-03-17T20:04:23.058Z,41.17
2023-03-17T20:06:55.407Z,40.59
2023-03-17T20:09:25.453Z,40.67
2023-03-17T20:11:53.323Z,40.65
2023-03-17T20:14:20.887Z,40.49
2023-03-17T20:16:48.383Z,40.11
2023-03-17T20:19:16.255Z,40.62
2023-03-17T20:21:44.316Z,40.90
2023-03-17T20:24:12.783Z,40.83
2023-03-17T20:26:40.927Z,40.88
2023-03-17T20:29:08.576Z,41.00
2023-03-17T20:31:35.590Z,41.51
2023-03-17T20:34:02.327Z,41.18
2023-03-17T20:36:28.995Z,41.56
2023-03-17T20:38:56.938Z,40.94
2023-03-17T20:41:23.988Z,41.03
2023-03-17T20:43:52.196Z,42.64
2023-03-17T20:46:20.265Z,42.49
2023-03-17T20:48:48.262Z,42.40
2023-03-17T20:51:16.938Z,41.36
2023-03-17T20:53:44.722Z,42.40
2023-03-17T20:56:15.664Z,41.76
2023-03-17T20:58:45.679Z,41.60
2023-03-17T21:01:12.977Z,42.05
2023-03-17T21:03:40.238Z,41.83
2023-03-17T21:06:07.441Z,42.21
2023-03-17T21:08:34.142Z,41.52
2023-03-17T21:11:01.284Z,42.36
2023-03-17T21:13:28.424Z,42.41
2023-03-17T21:15:55.821Z,41.64
2023-03-17T21:18:23.423Z,41.95
2023-03-17T21:20:50.771Z,41.59
2023-03-17T21:23:17.379Z,42.24
2023-03-17T21:25:44.268Z,42.43
2023-03-17T21:28:11.443Z,42.37
2023-03-17T21:30:38.097Z,42.17
2023-03-17T21:33:04.806Z,42.26
2023-03-17T21:35:34.592Z,42.81
2023-03-17T21:38:02.040Z,42.31
2023-03-17T21:40:31.311Z,42.60
2023-03-17T21:42:58.459Z,42.10
2023-03-17T21:45:25.136Z,42.72
2023-03-17T21:47:51.950Z,43.04
2023-03-17T21:50:21.866Z,42.62
2023-03-17T21:52:48.891Z,43.23
2023-03-17T21:55:15.902Z,43.05
2023-03-17T21:57:43.071Z,42.59
2023-03-17T22:00:11.736Z,43.55
2023-03-17T22:02:41.906Z,43.37
2023-03-17T22:05:10.450Z,43.36
2023-03-17T22:07:38.564Z,43.94
2023-03-17T22:10:07.407Z,43.46
2023-03-17T22:12:35.273Z,44.70
2023-03-17T22:15:03.815Z,45.59
2023-03-17T22:17:32.705Z,45.07
2023-03-17T22:19:59.555Z,45.47
2023-03-17T22:22:26.390Z,44.38
2023-03-17T22:24:53.277Z,44.76
2023-03-17T22:27:20.066Z,44.19
2023-03-17T22:29:47.549Z,44.52
2023-03-17T22:32:14.428Z,43.83
2023-03-17T22:34:41.425Z,44.02
2023-03-17T22:37:08.495Z,44.24
2023-03-17T22:39:35.513Z,44.30
2023-03-17T22:42:02.535Z,44.20
2023-03-17T22:44:29.510Z,43.81
2023-03-17T22:46:56.502Z,44.08
2023-03-17T22:49:24.229Z,44.06
2023-03-17T22:51:51.002Z,44.48
2023-03-17T22:54:18.749Z,43.96
2023-03-17T22:56:45.763Z,44.14
2023-03-17T22:59:12.676Z,44.63
2023-03-17T23:01:39.670Z,44.31
2023-03-17T23:04:07.056Z,45.09
2023-03-17T23:06:35.246Z,44.70
2023-03-17T23:09:02.777Z,44.45
2023-03-17T23:11:29.746Z,43.95
2023-03-17T23:13:56.528Z,44.25
2023-03-17T23:16:23.950Z,44.29
2023-03-17T23:18:51.027Z,43.76
2023-03-17T23:21:32.496Z,44.62
2023-03-17T23:24:00.731Z,44.87
2023-03-17T23:26:28.321Z,44.62
2023-03-17T23:28:55.192Z,44.45
2023-03-17T23:31:22.764Z,44.67
2023-03-17T23:33:50.557Z,44.14
2023-03-17T23:36:17.876Z,44.42
2023-03-17T23:38:45.951Z,44.76
2023-03-17T23:41:14.494Z,44.75
2023-03-17T23:43:41.962Z,44.65
2023-03-17T23:46:08.810Z,44.56
2023-03-17T23:48:36.010Z,45.18
2023-03-17T23:51:03.366Z,45.80
2023-03-17T23:53:31.578Z,45.21
2023-03-17T23:55:59.728Z,45.36
2023-03-17T23:58:27.528Z,45.07
